createdAt,value
2023-01-18T00:00:32.945Z,985
2023-01-18T00:02:33.019Z,985
2023-01-18T00:04:34.347Z,985
2023-01-18T00:06:34.238Z,985
2023-01-18T00:08:33.005Z,986
2023-01-18T00:10:32.981Z,986
2023-01-18T00:12:32.993Z,985
2023-01-18T00:14:33.789Z,986
2023-01-18T00:16:33.386Z,986
2023-01-18T00:18:32.990Z,986
2023-01-18T00:20:32.996Z,986
2023-01-18T00:24:33.002Z,986
2023-01-18T00:26:33.094Z,986
2023-01-18T00:28:33.507Z,986
2023-01-18T00:30:33.105Z,986
2023-01-18T00:32:33.973Z,985
2023-01-18T00:34:33.134Z,985
2023-01-18T00:36:34.601Z,986
2023-01-18T00:38:33.200Z,986
2023-01-18T00:40:34.530Z,986
2023-01-18T00:42:33.164Z,986
2023-01-18T00:44:34.835Z,986
2023-01-18T00:46:33.611Z,986
2023-01-18T00:48:36.746Z,986
2023-01-18T00:50:33.618Z,986
2023-01-18T00:52:33.521Z,986
2023-01-18T00:54:34.703Z,986
2023-01-18T00:56:34.026Z,986
2023-01-18T00:58:34.564Z,986
2023-01-18T01:00:34.135Z,986
2023-01-18T01:02:34.513Z,986
2023-01-18T01:04:33.670Z,986
2023-01-18T01:06:34.167Z,986
2023-01-18T01:08:33.692Z,986
2023-01-18T01:10:37.898Z,986
2023-01-18T01:12:34.163Z,986
2023-01-18T01:14:33.623Z,986
2023-01-18T01:16:35.056Z,986
2023-01-18T01:18:34.066Z,986
2023-01-18T01:20:34.921Z,986
2023-01-18T01:22:34.547Z,986
2023-01-18T01:24:33.185Z,986
2023-01-18T01:26:33.757Z,986
2023-01-18T01:28:34.426Z,986
2023-01-18T01:34:33.612Z,986
2023-01-18T01:38:34.596Z,986
2023-01-18T01:40:34.536Z,986
2023-01-18T01:42:34.149Z,986
2023-01-18T01:44:35.086Z,986
2023-01-18T01:46:34.551Z,986
2023-01-18T01:48:35.323Z,986
2023-01-18T01:50:34.160Z,986
2023-01-18T01:52:35.015Z,986
2023-01-18T01:54:34.640Z,986
2023-01-18T01:58:34.564Z,986
2023-01-18T02:00:33.674Z,986
2023-01-18T02:02:33.730Z,986
2023-01-18T02:04:34.145Z,986
2023-01-18T02:06:34.193Z,986
2023-01-18T02:08:34.750Z,986
2023-01-18T02:10:34.138Z,986
2023-01-18T02:12:33.771Z,986
2023-01-18T02:14:33.636Z,986
2023-01-18T02:16:33.712Z,986
2023-01-18T02:18:34.678Z,986
2023-01-18T02:20:33.712Z,986
2023-01-18T02:22:34.091Z,986
2023-01-18T02:24:33.939Z,986
2023-01-18T02:26:34.643Z,986
2023-01-18T02:28:34.550Z,986
2023-01-18T02:30:33.368Z,986
2023-01-18T02:32:34.137Z,986
2023-01-18T02:34:34.159Z,986
2023-01-18T02:36:34.434Z,986
2023-01-18T02:38:34.592Z,986
2023-01-18T02:40:34.569Z,986
2023-01-18T02:42:33.690Z,986
2023-01-18T02:44:34.195Z,986
2023-01-18T02:46:33.876Z,986
2023-01-18T02:48:34.959Z,986
2023-01-18T02:50:33.754Z,986
2023-01-18T02:52:33.686Z,986
2023-01-18T02:54:34.924Z,986
2023-01-18T02:56:33.721Z,986
2023-01-18T02:58:34.570Z,986
2023-01-18T03:00:39.038Z,986
2023-01-18T03:02:34.089Z,986
2023-01-18T03:04:36.295Z,986
2023-01-18T03:06:34.923Z,986
2023-01-18T03:08:34.563Z,986
2023-01-18T03:10:34.186Z,986
2023-01-18T03:14:36.267Z,986
2023-01-18T03:16:33.708Z,986
2023-01-18T03:18:33.209Z,986
2023-01-18T03:20:34.529Z,986
2023-01-18T03:22:34.131Z,986
2023-01-18T03:24:33.734Z,986
2023-01-18T03:26:44.342Z,986
2023-01-18T03:28:34.467Z,986
2023-01-18T03:30:34.412Z,986
2023-01-18T03:32:33.651Z,986
2023-01-18T03:34:33.701Z,986
2023-01-18T03:36:34.116Z,986
2023-01-18T03:38:35.327Z,986
2023-01-18T03:40:34.682Z,986
2023-01-18T03:42:33.251Z,986
2023-01-18T03:44:33.660Z,986
2023-01-18T03:46:35.557Z,986
2023-01-18T03:48:35.524Z,986
2023-01-18T03:50:34.967Z,986
2023-01-18T03:52:34.159Z,986
2023-01-18T03:54:33.228Z,986
2023-01-18T03:56:33.701Z,987
2023-01-18T03:58:37.227Z,987
2023-01-18T04:00:39.682Z,987
2023-01-18T04:02:34.105Z,987
2023-01-18T04:04:34.173Z,987
2023-01-18T04:06:33.730Z,987
2023-01-18T04:08:35.385Z,987
2023-01-18T04:10:34.307Z,987
2023-01-18T04:12:33.721Z,987
2023-01-18T04:14:34.631Z,987
2023-01-18T04:16:34.221Z,987
2023-01-18T04:18:33.693Z,987
2023-01-18T04:20:33.720Z,987
2023-01-18T04:22:33.756Z,987
2023-01-18T04:24:33.797Z,987
2023-01-18T04:26:33.874Z,987
2023-01-18T04:28:33.252Z,987
2023-01-18T04:30:34.542Z,987
2023-01-18T04:32:33.329Z,987
2023-01-18T04:34:35.077Z,987
2023-01-18T04:36:35.666Z,987
2023-01-18T04:38:34.423Z,987
2023-01-18T04:40:34.494Z,987
2023-01-18T04:42:33.794Z,987
2023-01-18T04:44:33.742Z,987
2023-01-18T04:46:38.326Z,987
2023-01-18T04:48:33.241Z,987
2023-01-18T04:50:33.697Z,987
2023-01-18T04:52:34.170Z,987
2023-01-18T04:54:36.715Z,987
2023-01-18T04:56:34.204Z,987
2023-01-18T04:58:34.667Z,987
2023-01-18T05:00:34.654Z,987
2023-01-18T05:02:34.220Z,987
2023-01-18T05:04:34.160Z,987
2023-01-18T05:06:34.275Z,987
2023-01-18T05:08:38.623Z,987
2023-01-18T05:10:34.535Z,987
2023-01-18T05:12:33.365Z,987
2023-01-18T05:14:34.504Z,987
2023-01-18T05:16:34.266Z,987
2023-01-18T05:18:34.351Z,987
2023-01-18T05:20:34.104Z,987
2023-01-18T05:22:35.031Z,987
2023-01-18T05:24:34.186Z,987
2023-01-18T05:26:34.284Z,987
2023-01-18T05:28:33.791Z,987
2023-01-18T05:30:33.924Z,987
2023-01-18T05:32:33.730Z,987
2023-01-18T05:34:34.242Z,987
2023-01-18T05:36:35.450Z,987
2023-01-18T05:38:33.722Z,987
2023-01-18T05:40:33.427Z,987
2023-01-18T05:42:33.771Z,987
2023-01-18T05:44:34.127Z,987
2023-01-18T05:46:33.451Z,987
2023-01-18T05:48:34.605Z,987
2023-01-18T05:50:34.712Z,987
2023-01-18T05:52:34.093Z,987
2023-01-18T05:54:34.195Z,987
2023-01-18T05:58:33.745Z,987
2023-01-18T06:00:33.293Z,987
2023-01-18T06:02:34.270Z,987
2023-01-18T06:04:34.251Z,987
2023-01-18T06:06:34.814Z,987
2023-01-18T06:08:33.750Z,987
2023-01-18T06:10:35.321Z,987
2023-01-18T06:12:34.492Z,988
2023-01-18T06:14:34.508Z,988
2023-01-18T06:16:33.860Z,988
2023-01-18T06:18:34.723Z,988
2023-01-18T06:20:33.873Z,988
2023-01-18T06:22:33.794Z,988
2023-01-18T06:24:37.612Z,988
2023-01-18T06:26:33.796Z,988
2023-01-18T06:28:34.969Z,988
2023-01-18T06:30:34.285Z,988
2023-01-18T06:32:34.107Z,988
2023-01-18T06:34:34.613Z,988
2023-01-18T06:36:34.165Z,988
2023-01-18T06:38:37.621Z,988
2023-01-18T06:40:34.235Z,988
2023-01-18T06:42:34.963Z,988
2023-01-18T06:44:33.817Z,988
2023-01-18T06:46:34.405Z,988
2023-01-18T06:48:34.249Z,988
2023-01-18T06:50:35.355Z,988
2023-01-18T06:52:34.977Z,988
2023-01-18T06:54:34.737Z,988
2023-01-18T06:56:33.838Z,988
2023-01-18T06:58:35.630Z,988
2023-01-18T07:00:33.883Z,988
2023-01-18T07:02:34.903Z,988
2023-01-18T07:04:35.445Z,988
2023-01-18T07:06:34.850Z,988
2023-01-18T07:08:32.979Z,988
2023-01-18T07:10:33.365Z,988
2023-01-18T07:12:32.935Z,988
2023-01-18T07:14:32.930Z,989
2023-01-18T07:16:34.393Z,988
2023-01-18T07:18:34.262Z,988
2023-01-18T07:20:32.916Z,989
2023-01-18T07:22:33.312Z,989
2023-01-18T07:24:32.921Z,989
2023-01-18T07:26:33.800Z,989
2023-01-18T07:28:33.098Z,989
2023-01-18T07:30:34.219Z,989
2023-01-18T07:32:32.930Z,989
2023-01-18T07:34:34.175Z,989
2023-01-18T07:36:32.936Z,989
2023-01-18T07:38:37.926Z,989
2023-01-18T07:40:32.960Z,989
2023-01-18T07:42:39.041Z,989
2023-01-18T07:44:33.056Z,989
2023-01-18T07:46:32.977Z,989
2023-01-18T07:48:32.932Z,989
2023-01-18T07:50:34.791Z,989
2023-01-18T07:52:33.060Z,989
2023-01-18T07:54:32.979Z,989
2023-01-18T07:56:33.891Z,989
2023-01-18T07:58:32.958Z,989
2023-01-18T08:00:33.900Z,989
2023-01-18T08:02:33.041Z,989
2023-01-18T08:04:35.897Z,989
2023-01-18T08:06:32.974Z,989
2023-01-18T08:08:32.921Z,989
2023-01-18T08:10:36.323Z,989
2023-01-18T08:12:32.947Z,989
2023-01-18T08:14:32.937Z,989
2023-01-18T08:16:33.183Z,989
2023-01-18T08:18:32.929Z,989
2023-01-18T08:20:33.035Z,989
2023-01-18T08:22:34.440Z,989
2023-01-18T08:24:34.354Z,989
2023-01-18T08:26:32.994Z,989
2023-01-18T08:28:33.037Z,989
2023-01-18T08:30:32.926Z,989
2023-01-18T08:32:34.153Z,989
2023-01-18T08:34:32.926Z,989
2023-01-18T08:36:34.376Z,990
2023-01-18T08:38:32.959Z,990
2023-01-18T08:40:35.408Z,990
2023-01-18T08:42:33.052Z,990
2023-01-18T08:44:35.033Z,990
2023-01-18T08:46:32.980Z,990
2023-01-18T08:48:32.966Z,990
2023-01-18T08:50:32.929Z,990
2023-01-18T08:52:32.923Z,990
2023-01-18T08:54:38.817Z,990
2023-01-18T08:56:32.951Z,990
2023-01-18T08:58:39.859Z,990
2023-01-18T09:00:33.087Z,990
2023-01-18T09:02:34.135Z,990
2023-01-18T09:04:32.931Z,990
2023-01-18T09:06:33.015Z,990
2023-01-18T09:08:34.405Z,990
2023-01-18T09:10:32.926Z,990
2023-01-18T09:12:33.007Z,990
2023-01-18T09:14:34.267Z,990
2023-01-18T09:16:32.986Z,990
2023-01-18T09:18:33.000Z,990
2023-01-18T09:20:38.111Z,991
2023-01-18T09:22:32.933Z,991
2023-01-18T09:24:32.968Z,991
2023-01-18T09:26:34.271Z,991
2023-01-18T09:28:32.954Z,991
2023-01-18T09:30:32.942Z,991
2023-01-18T09:32:33.053Z,991
2023-01-18T09:34:34.247Z,991
2023-01-18T09:36:33.400Z,991
2023-01-18T09:38:32.932Z,991
2023-01-18T09:40:32.993Z,991
2023-01-18T09:42:34.650Z,991
2023-01-18T09:44:32.976Z,991
2023-01-18T09:46:33.690Z,991
2023-01-18T09:48:35.195Z,991
2023-01-18T09:50:32.981Z,991
2023-01-18T09:52:33.335Z,991
2023-01-18T09:54:34.787Z,991
2023-01-18T09:56:32.995Z,991
2023-01-18T10:00:32.975Z,992
2023-01-18T10:02:35.598Z,992
2023-01-18T10:04:32.971Z,992
2023-01-18T10:06:33.006Z,992
2023-01-18T10:08:33.920Z,992
2023-01-18T10:10:32.942Z,992
2023-01-18T10:12:32.937Z,992
2023-01-18T10:14:33.050Z,992
2023-01-18T10:16:33.074Z,992
2023-01-18T10:18:33.145Z,992
2023-01-18T10:20:38.255Z,992
2023-01-18T10:22:32.937Z,992
2023-01-18T10:24:33.337Z,992
2023-01-18T10:26:32.941Z,992
2023-01-18T10:28:33.128Z,992
2023-01-18T10:30:32.999Z,992
2023-01-18T10:32:32.978Z,992
2023-01-18T10:34:35.547Z,992
2023-01-18T10:36:32.941Z,992
2023-01-18T10:38:32.977Z,992
2023-01-18T10:40:33.069Z,992
2023-01-18T10:42:35.476Z,992
2023-01-18T10:44:33.774Z,992
2023-01-18T10:46:32.968Z,992
2023-01-18T10:48:35.203Z,992
2023-01-18T10:50:33.898Z,993
2023-01-18T10:52:32.940Z,992
2023-01-18T10:54:32.946Z,993
2023-01-18T10:56:33.023Z,993
2023-01-18T10:58:34.725Z,993
2023-01-18T11:00:34.264Z,993
2023-01-18T11:02:32.961Z,993
2023-01-18T11:04:33.792Z,993
2023-01-18T11:06:32.992Z,993
2023-01-18T11:08:32.969Z,993
2023-01-18T11:10:32.957Z,993
2023-01-18T11:12:33.085Z,993
2023-01-18T11:14:33.040Z,993
2023-01-18T11:16:33.862Z,993
2023-01-18T11:18:32.973Z,993
2023-01-18T11:20:32.970Z,993
2023-01-18T11:22:34.306Z,993
2023-01-18T11:24:32.979Z,993
2023-01-18T11:26:32.980Z,993
2023-01-18T11:28:33.428Z,993
2023-01-18T11:30:33.765Z,993
2023-01-18T11:34:36.100Z,993
2023-01-18T11:36:32.969Z,993
2023-01-18T11:38:32.976Z,993
2023-01-18T11:40:34.130Z,993
2023-01-18T11:42:32.944Z,993
2023-01-18T11:44:34.559Z,993
2023-01-18T11:46:32.972Z,993
2023-01-18T11:48:34.701Z,993
2023-01-18T11:50:32.947Z,993
2023-01-18T11:52:33.364Z,993
2023-01-18T11:54:32.957Z,993
2023-01-18T11:56:32.989Z,993
2023-01-18T11:58:33.843Z,993
2023-01-18T12:00:32.991Z,993
2023-01-18T12:02:32.992Z,994
2023-01-18T12:04:34.247Z,994
2023-01-18T12:06:33.063Z,994
2023-01-18T12:08:32.974Z,994
2023-01-18T12:10:32.946Z,994
2023-01-18T12:12:32.987Z,994
2023-01-18T12:14:32.943Z,994
2023-01-18T12:16:33.002Z,994
2023-01-18T12:18:33.084Z,994
2023-01-18T12:20:33.000Z,994
2023-01-18T12:22:32.978Z,994
2023-01-18T12:24:32.945Z,994
2023-01-18T12:26:33.021Z,994
2023-01-18T12:28:32.952Z,994
2023-01-18T12:30:33.029Z,994
2023-01-18T12:32:32.976Z,994
2023-01-18T12:34:32.949Z,994
2023-01-18T12:36:32.982Z,994
2023-01-18T12:38:35.650Z,994
2023-01-18T12:40:32.953Z,994
2023-01-18T12:42:33.045Z,994
2023-01-18T12:44:33.783Z,994
2023-01-18T12:46:32.983Z,994
2023-01-18T12:48:33.006Z,994
2023-01-18T12:50:33.023Z,994
2023-01-18T12:52:32.983Z,994
2023-01-18T12:54:32.955Z,995
2023-01-18T12:56:33.006Z,995
2023-01-18T12:58:32.980Z,995
2023-01-18T13:00:33.126Z,995
2023-01-18T13:02:33.899Z,995
2023-01-18T13:04:32.955Z,995
2023-01-18T13:06:32.960Z,995
2023-01-18T13:08:34.715Z,995
2023-01-18T13:10:32.963Z,995
2023-01-18T13:12:32.973Z,995
2023-01-18T13:14:33.001Z,995
2023-01-18T13:16:33.057Z,995
2023-01-18T13:18:33.784Z,995
2023-01-18T13:20:32.994Z,995
2023-01-18T13:22:32.966Z,995
2023-01-18T13:24:35.902Z,995
2023-01-18T13:26:34.792Z,995
2023-01-18T13:28:32.950Z,995
2023-01-18T13:30:32.983Z,995
2023-01-18T13:32:32.959Z,995
2023-01-18T13:34:33.341Z,995
2023-01-18T13:36:33.998Z,995
2023-01-18T13:38:41.273Z,995
2023-01-18T13:40:32.980Z,995
2023-01-18T13:42:34.405Z,995
2023-01-18T13:44:33.277Z,995
2023-01-18T13:46:33.063Z,995
2023-01-18T13:48:32.985Z,995
2023-01-18T13:50:32.964Z,996
2023-01-18T13:52:33.043Z,996
2023-01-18T13:54:32.962Z,996
2023-01-18T13:56:33.076Z,996
2023-01-18T13:58:33.118Z,996
2023-01-18T14:00:35.221Z,996
2023-01-18T14:02:32.987Z,996
2023-01-18T14:04:33.056Z,996
2023-01-18T14:06:32.975Z,996
2023-01-18T14:08:33.001Z,996
2023-01-18T14:10:33.936Z,996
2023-01-18T14:12:34.500Z,996
2023-01-18T14:16:20.974Z,996
2023-01-18T14:18:17.908Z,996
2023-01-18T14:24:18.290Z,996
2023-01-18T14:30:14.866Z,996
2023-01-18T14:32:21.121Z,996
2023-01-18T14:36:16.762Z,996
2023-01-18T14:38:20.745Z,996
2023-01-18T14:42:16.585Z,996
2023-01-18T14:44:20.843Z,996
2023-01-18T14:46:16.923Z,996
2023-01-18T14:48:18.381Z,996
2023-01-18T14:52:20.381Z,996
2023-01-18T14:54:16.560Z,997
2023-01-18T14:56:20.914Z,997
2023-01-18T14:58:20.870Z,997
2023-01-18T15:00:19.210Z,997
2023-01-18T15:04:20.546Z,997
2023-01-18T15:06:17.159Z,997
2023-01-18T15:10:20.794Z,997
2023-01-18T15:12:16.634Z,997
2023-01-18T15:14:18.589Z,997
2023-01-18T15:18:14.484Z,997
2023-01-18T15:24:15.273Z,997
2023-01-18T15:30:14.442Z,997
2023-01-18T15:36:14.406Z,997
2023-01-18T15:40:19.346Z,997
2023-01-18T15:42:16.605Z,997
2023-01-18T15:44:20.811Z,997
2023-01-18T15:48:22.345Z,997
2023-01-18T15:56:18.445Z,998
2023-01-18T16:00:15.036Z,998
2023-01-18T16:02:20.856Z,998
2023-01-18T16:04:20.948Z,998
2023-01-18T16:06:14.496Z,998
2023-01-18T16:12:17.323Z,998
2023-01-18T16:16:18.631Z,998
2023-01-18T16:20:20.884Z,998
2023-01-18T16:24:16.728Z,998
2023-01-18T16:26:20.970Z,998
2023-01-18T16:28:20.747Z,998
2023-01-18T16:30:16.725Z,998
2023-01-18T16:32:20.813Z,998
2023-01-18T16:36:14.544Z,998
2023-01-18T16:38:20.926Z,998
2023-01-18T16:42:14.552Z,998
2023-01-18T16:48:14.892Z,998
2023-01-18T16:50:20.802Z,998
2023-01-18T16:54:21.152Z,998
2023-01-18T16:56:19.310Z,998
2023-01-18T16:58:14.606Z,999
2023-01-18T17:00:14.938Z,999
2023-01-18T17:04:21.065Z,999
2023-01-18T17:06:18.726Z,999
2023-01-18T17:10:19.306Z,999
2023-01-18T17:12:14.826Z,999
2023-01-18T17:14:20.870Z,999
2023-01-18T17:16:20.512Z,999
2023-01-18T17:18:18.306Z,999
2023-01-18T17:22:20.922Z,999
2023-01-18T17:24:18.476Z,999
2023-01-18T17:30:18.097Z,999
2023-01-18T17:32:20.766Z,999
2023-01-18T17:34:24.911Z,999
2023-01-18T17:36:16.359Z,999
2023-01-18T17:42:29.620Z,999
2023-01-18T17:46:20.859Z,1000
2023-01-18T17:48:15.269Z,1000
2023-01-18T17:50:21.102Z,1000
2023-01-18T17:52:19.936Z,1000
2023-01-18T17:54:20.645Z,1000
2023-01-18T18:00:18.349Z,1000
2023-01-18T18:06:29.964Z,1000
2023-01-18T18:10:19.259Z,1000
2023-01-18T18:12:17.160Z,1000
2023-01-18T18:16:22.329Z,1000
2023-01-18T18:18:22.866Z,1000
2023-01-18T18:20:22.078Z,1000
2023-01-18T18:24:19.250Z,1000
2023-01-18T18:30:19.893Z,1000
2023-01-18T18:34:21.236Z,1000
2023-01-18T18:36:15.498Z,1001
2023-01-18T18:42:14.498Z,1001
2023-01-18T18:44:19.281Z,1001
2023-01-18T18:46:20.385Z,1001
2023-01-18T18:48:18.895Z,1001
2023-01-18T18:50:20.729Z,1001
2023-01-18T18:54:15.450Z,1001
2023-01-18T18:56:20.674Z,1001
2023-01-18T19:00:18.145Z,1001
2023-01-18T19:02:20.853Z,1001
2023-01-18T19:06:14.845Z,1001
2023-01-18T19:10:20.389Z,1001
2023-01-18T19:12:20.439Z,1001
2023-01-18T19:14:21.500Z,1001
2023-01-18T19:16:20.390Z,1001
2023-01-18T19:18:20.379Z,1001
2023-01-18T19:24:16.625Z,1001
2023-01-18T19:30:17.119Z,1001
2023-01-18T19:36:14.972Z,1001
2023-01-18T19:40:18.295Z,1002
2023-01-18T19:42:14.753Z,1002
2023-01-18T19:44:20.962Z,1002
2023-01-18T19:48:19.832Z,1002
2023-01-18T19:54:14.541Z,1002
2023-01-18T19:58:15.020Z,1002
2023-01-18T20:00:14.549Z,1002
2023-01-18T20:02:15.223Z,1002
2023-01-18T20:06:14.489Z,1002
2023-01-18T20:08:20.020Z,1002
2023-01-18T20:12:16.646Z,1002
2023-01-18T20:18:14.519Z,1002
2023-01-18T20:24:14.959Z,1002
2023-01-18T20:26:31.200Z,1002
2023-01-18T20:30:16.714Z,1002
2023-01-18T20:32:19.687Z,1002
2023-01-18T20:34:20.987Z,1002
2023-01-18T20:36:14.551Z,1002
2023-01-18T20:38:21.047Z,1002
2023-01-18T20:40:17.204Z,1002
2023-01-18T20:42:20.862Z,1002
2023-01-18T20:44:20.054Z,1002
2023-01-18T20:48:20.223Z,1002
2023-01-18T20:52:19.899Z,1002
2023-01-18T20:54:18.033Z,1002
2023-01-18T20:56:29.039Z,1002
2023-01-18T21:00:14.537Z,1003
2023-01-18T21:02:21.021Z,1003
2023-01-18T21:06:16.233Z,1003
2023-01-18T21:08:19.571Z,1003
2023-01-18T21:10:20.713Z,1003
2023-01-18T21:12:15.346Z,1003
2023-01-18T21:18:14.567Z,1003
2023-01-18T21:22:14.632Z,1003
2023-01-18T21:24:19.463Z,1003
2023-01-18T21:26:20.895Z,1003
2023-01-18T21:28:19.857Z,1003
2023-01-18T21:30:14.639Z,1003
2023-01-18T21:32:20.856Z,1003
2023-01-18T21:34:17.183Z,1003
2023-01-18T21:36:14.568Z,1003
2023-01-18T21:38:20.046Z,1003
2023-01-18T21:40:21.323Z,1003
2023-01-18T21:42:15.625Z,1003
2023-01-18T21:48:18.429Z,1003
2023-01-18T21:50:17.718Z,1003
2023-01-18T21:52:20.058Z,1003
2023-01-18T21:54:17.217Z,1003
2023-01-18T21:56:20.977Z,1003
2023-01-18T22:00:20.234Z,1003
2023-01-18T22:02:19.326Z,1003
2023-01-18T22:06:14.569Z,1003
2023-01-18T22:12:19.380Z,1003
2023-01-18T22:14:19.846Z,1003
2023-01-18T22:18:15.564Z,1004
2023-01-18T22:20:21.023Z,1004
2023-01-18T22:22:20.992Z,1004
2023-01-18T22:24:14.475Z,1004
2023-01-18T22:28:20.806Z,1004
2023-01-18T22:30:18.916Z,1004
2023-01-18T22:32:20.814Z,1004
2023-01-18T22:34:20.734Z,1004
2023-01-18T22:36:14.643Z,1004
2023-01-18T22:42:14.610Z,1004
2023-01-18T22:44:20.828Z,1004
2023-01-18T22:46:17.404Z,1004
2023-01-18T22:48:14.920Z,1004
2023-01-18T22:50:20.843Z,1004
2023-01-18T22:52:18.315Z,1004
2023-01-18T22:54:18.543Z,1004
2023-01-18T22:58:20.864Z,1004
2023-01-18T23:00:20.386Z,1004
2023-01-18T23:02:18.712Z,1004
2023-01-18T23:04:21.215Z,1004
2023-01-18T23:06:14.622Z,1004
2023-01-18T23:12:20.683Z,1004
2023-01-18T23:18:15.579Z,1004
2023-01-18T23:20:20.822Z,1004
2023-01-18T23:22:20.172Z,1004
2023-01-18T23:24:17.178Z,1004
2023-01-18T23:26:19.827Z,1004
2023-01-18T23:28:20.983Z,1004
2023-01-18T23:30:14.656Z,1004
2023-01-18T23:32:20.515Z,1004
2023-01-18T23:36:14.594Z,1004
2023-01-18T23:38:20.256Z,1004
2023-01-18T23:40:20.520Z,1004
2023-01-18T23:42:18.172Z,1004
2023-01-18T23:44:20.307Z,1004
2023-01-18T23:46:21.025Z,1004
2023-01-18T23:48:17.444Z,1004
2023-01-18T23:50:20.847Z,1004
2023-01-18T23:54:14.569Z,1004
